createdAt,value
2023-04-21T00:02:09.805Z,99.90
2023-04-21T00:04:39.000Z,99.90
2023-04-21T00:07:07.501Z,99.90
2023-04-21T00:09:35.715Z,99.90
2023-04-21T00:12:03.800Z,99.90
2023-04-21T00:14:32.195Z,99.90
2023-04-21T00:17:01.800Z,99.90
2023-04-21T00:19:30.098Z,99.90
2023-04-21T00:21:59.997Z,99.90
2023-04-21T00:24:28.396Z,99.90
2023-04-21T00:26:56.509Z,99.90
2023-04-21T00:29:24.800Z,99.90
2023-04-21T00:31:53.324Z,99.90
2023-04-21T00:34:23.469Z,99.90
2023-04-21T00:36:51.733Z,99.90
2023-04-21T00:39:20.257Z,99.90
2023-04-21T00:41:48.510Z,99.90
2023-04-21T00:44:17.060Z,99.90
2023-04-21T00:46:45.621Z,99.90
2023-04-21T00:49:14.402Z,99.90
2023-04-21T00:51:44.678Z,99.90
2023-04-21T00:54:14.544Z,99.90
2023-04-21T00:56:42.937Z,99.90
2023-04-21T00:59:11.407Z,99.90
2023-04-21T01:01:40.128Z,99.90
2023-04-21T01:04:10.370Z,99.90
2023-04-21T01:06:39.323Z,99.90
2023-04-21T01:09:08.871Z,99.90
2023-04-21T01:11:37.193Z,99.90
2023-04-21T01:14:05.640Z,99.90
2023-04-21T01:16:34.485Z,99.90
2023-04-21T01:19:05.284Z,99.90
2023-04-21T01:21:41.775Z,99.90
2023-04-21T01:24:10.151Z,99.90
2023-04-21T01:26:38.249Z,99.90
2023-04-21T01:29:07.106Z,99.90
2023-04-21T01:31:35.731Z,99.90
2023-04-21T01:34:05.449Z,99.90
2023-04-21T01:36:33.903Z,99.90
2023-04-21T01:39:04.229Z,99.90
2023-04-21T01:41:32.974Z,99.90
2023-04-21T01:44:01.467Z,99.90
2023-04-21T01:46:29.824Z,99.90
2023-04-21T01:48:58.515Z,99.90
2023-04-21T01:51:27.998Z,99.90
2023-04-21T01:53:56.125Z,99.90
2023-04-21T01:56:26.178Z,99.90
2023-04-21T01:58:54.503Z,99.90
2023-04-21T02:01:22.758Z,99.90
2023-04-21T02:03:51.428Z,99.90
2023-04-21T02:06:20.043Z,99.90
2023-04-21T02:08:48.169Z,99.90
2023-04-21T02:11:16.695Z,99.90
2023-04-21T02:13:46.902Z,99.90
2023-04-21T02:16:15.122Z,99.90
2023-04-21T02:18:44.688Z,99.90
2023-04-21T02:21:13.086Z,99.90
2023-04-21T02:23:41.706Z,99.90
2023-04-21T02:26:10.448Z,99.90
2023-04-21T02:28:38.910Z,99.90
2023-04-21T02:31:08.611Z,99.90
2023-04-21T02:33:37.369Z,99.90
2023-04-21T02:36:06.564Z,99.90
2023-04-21T02:38:35.108Z,99.90
2023-04-21T02:41:03.262Z,99.90
2023-04-21T02:43:31.855Z,99.90
2023-04-21T02:45:59.964Z,99.90
2023-04-21T02:48:29.462Z,99.90
2023-04-21T02:50:58.216Z,99.90
2023-04-21T02:53:26.330Z,99.90
2023-04-21T02:55:54.491Z,99.90
2023-04-21T02:58:23.226Z,99.90
2023-04-21T03:00:51.640Z,99.90
2023-04-21T03:03:20.154Z,99.90
2023-04-21T03:05:50.440Z,99.90
2023-04-21T03:08:18.504Z,99.90
2023-04-21T03:10:46.727Z,99.90
2023-04-21T03:13:15.158Z,99.90
2023-04-21T03:15:43.268Z,99.90
2023-04-21T03:18:11.540Z,99.90
2023-04-21T03:20:40.284Z,99.90
2023-04-21T03:23:09.895Z,99.90
2023-04-21T03:25:39.926Z,99.90
2023-04-21T03:28:08.147Z,99.90
2023-04-21T03:30:36.324Z,99.90
2023-04-21T03:33:05.041Z,99.90
2023-04-21T03:35:34.570Z,99.90
2023-04-21T03:38:03.992Z,99.90
2023-04-21T03:40:34.063Z,99.90
2023-04-21T03:43:02.250Z,99.90
2023-04-21T03:45:30.473Z,99.90
2023-04-21T03:47:58.756Z,99.90
2023-04-21T03:50:27.166Z,99.90
2023-04-21T03:52:55.615Z,99.90
2023-04-21T03:55:23.845Z,99.90
2023-04-21T03:57:53.523Z,99.90
2023-04-21T04:00:22.212Z,99.90
2023-04-21T04:02:50.435Z,99.90
2023-04-21T04:05:18.884Z,99.90
2023-04-21T04:07:47.198Z,99.90
2023-04-21T04:10:15.600Z,99.90
2023-04-21T04:12:43.842Z,99.90
2023-04-21T04:15:13.702Z,99.90
2023-04-21T04:17:41.862Z,99.90
2023-04-21T04:20:10.892Z,99.90
2023-04-21T04:22:39.337Z,99.90
2023-04-21T04:25:07.638Z,99.90
2023-04-21T04:27:35.863Z,99.90
2023-04-21T04:30:04.630Z,99.90
2023-04-21T04:32:34.675Z,99.90
2023-04-21T04:35:03.199Z,99.90
2023-04-21T04:37:31.848Z,99.90
2023-04-21T04:39:59.942Z,99.90
2023-04-21T04:42:29.077Z,99.90
2023-04-21T04:44:59.525Z,99.90
2023-04-21T04:47:27.664Z,99.90
2023-04-21T04:49:57.282Z,99.90
2023-04-21T04:52:25.687Z,99.90
2023-04-21T04:54:53.800Z,99.90
2023-04-21T04:57:22.056Z,99.90
2023-04-21T04:59:51.678Z,99.90
2023-04-21T05:02:19.977Z,99.90
2023-04-21T05:04:48.576Z,99.90
2023-04-21T05:07:18.726Z,99.90
2023-04-21T05:09:46.965Z,99.90
2023-04-21T05:12:15.208Z,99.90
2023-04-21T05:14:43.454Z,99.90
2023-04-21T05:17:11.589Z,99.90
2023-04-21T05:19:39.830Z,99.90
2023-04-21T05:22:08.153Z,99.90
2023-04-21T05:24:37.858Z,99.90
2023-04-21T05:27:06.183Z,99.90
2023-04-21T05:29:34.767Z,99.90
2023-04-21T05:32:02.949Z,99.90
2023-04-21T05:34:31.217Z,99.90
2023-04-21T05:36:59.566Z,99.90
2023-04-21T05:39:28.997Z,99.90
2023-04-21T05:41:58.772Z,99.90
2023-04-21T05:44:27.213Z,99.90
2023-04-21T05:46:55.366Z,99.90
2023-04-21T05:49:23.755Z,99.90
2023-04-21T05:51:51.941Z,99.90
2023-04-21T05:54:20.344Z,99.90
2023-04-21T05:56:49.022Z,99.90
2023-04-21T05:59:18.989Z,99.90
2023-04-21T06:01:47.318Z,99.90
2023-04-21T06:04:15.750Z,99.90
2023-04-21T06:06:44.400Z,99.90
2023-04-21T06:09:15.775Z,99.90
2023-04-21T06:11:43.935Z,99.90
2023-04-21T06:14:12.025Z,99.90
2023-04-21T06:16:41.748Z,99.90
2023-04-21T06:19:10.270Z,99.90
2023-04-21T06:21:38.468Z,99.90
2023-04-21T06:24:07.436Z,99.90
2023-04-21T06:26:36.118Z,99.90
2023-04-21T06:29:04.215Z,99.90
2023-04-21T06:31:32.378Z,99.90
2023-04-21T06:34:02.431Z,99.90
2023-04-21T06:36:30.917Z,99.90
2023-04-21T06:38:59.008Z,99.90
2023-04-21T06:41:27.710Z,99.90
2023-04-21T06:43:56.265Z,99.90
2023-04-21T06:46:24.494Z,99.90
2023-04-21T06:48:52.988Z,99.90
2023-04-21T06:51:22.722Z,99.90
2023-04-21T06:53:51.293Z,99.90
2023-04-21T06:56:19.611Z,99.90
2023-04-21T06:58:47.981Z,99.90
2023-04-21T07:01:16.462Z,99.90
2023-04-21T07:03:45.068Z,99.90
2023-04-21T07:06:13.475Z,99.90
2023-04-21T07:08:43.300Z,99.90
2023-04-21T07:11:11.856Z,99.90
2023-04-21T07:13:39.995Z,99.90
2023-04-21T07:16:08.382Z,99.90
2023-04-21T07:18:37.411Z,99.90
2023-04-21T07:21:05.701Z,99.90
2023-04-21T07:23:33.856Z,99.90
2023-04-21T07:26:03.749Z,99.90
2023-04-21T07:28:31.816Z,99.90
2023-04-21T07:31:01.495Z,99.90
2023-04-21T07:33:31.685Z,99.90
2023-04-21T07:36:00.240Z,99.90
2023-04-21T07:38:28.620Z,99.90
2023-04-21T07:40:56.952Z,99.90
2023-04-21T07:43:26.892Z,99.90
2023-04-21T07:45:55.074Z,99.90
2023-04-21T07:48:23.641Z,99.90
2023-04-21T07:50:53.328Z,99.90
2023-04-21T07:53:21.880Z,99.90
2023-04-21T07:55:50.270Z,99.90
2023-04-21T07:58:18.390Z,99.90
2023-04-21T08:00:48.086Z,99.90
2023-04-21T08:03:16.682Z,99.90
2023-04-21T08:05:45.965Z,99.90
2023-04-21T08:08:20.263Z,99.90
2023-04-21T08:10:48.398Z,99.90
2023-04-21T08:13:16.853Z,99.90
2023-04-21T08:15:45.193Z,99.90
2023-04-21T08:18:17.837Z,99.90
2023-04-21T08:20:47.903Z,99.90
2023-04-21T08:23:16.792Z,99.90
2023-04-21T08:25:46.105Z,99.90
2023-04-21T08:28:15.656Z,99.90
2023-04-21T08:30:44.038Z,99.90
2023-04-21T08:33:14.003Z,99.90
2023-04-21T08:35:54.963Z,99.90
2023-04-21T08:38:29.868Z,99.90
2023-04-21T08:41:00.897Z,99.90
2023-04-21T08:43:30.434Z,99.90
2023-04-21T08:45:59.141Z,99.90
2023-04-21T08:48:29.115Z,99.90
2023-04-21T08:50:59.336Z,99.90
2023-04-21T08:53:28.209Z,99.90
2023-04-21T08:56:10.025Z,99.90
2023-04-21T08:58:39.946Z,99.90
2023-04-21T09:01:08.207Z,99.90
2023-04-21T09:03:36.603Z,99.90
2023-04-21T09:06:09.630Z,99.90
2023-04-21T09:08:40.137Z,99.90
2023-04-21T09:11:08.682Z,99.90
2023-04-21T09:13:38.304Z,99.90
2023-04-21T09:16:15.938Z,99.90
2023-04-21T09:18:45.315Z,99.90
2023-04-21T09:21:18.733Z,99.90
2023-04-21T09:23:48.928Z,99.90
2023-04-21T09:26:18.770Z,99.90
2023-04-21T09:28:48.614Z,99.90
2023-04-21T09:31:20.108Z,99.90
2023-04-21T09:36:23.438Z,99.90
2023-04-21T09:39:17.367Z,99.90
2023-04-21T09:41:46.329Z,99.90
2023-04-21T09:44:14.492Z,99.90
2023-04-21T09:46:45.041Z,99.90
2023-04-21T09:49:16.780Z,99.90
2023-04-21T09:56:55.098Z,99.90
2023-04-21T09:59:30.883Z,99.90
2023-04-21T10:02:01.229Z,99.90
2023-04-21T10:04:32.631Z,99.90
2023-04-21T10:07:02.974Z,99.90
2023-04-21T10:09:36.343Z,99.90
2023-04-21T10:12:09.033Z,99.90
2023-04-21T10:14:38.181Z,99.90
2023-04-21T10:17:08.353Z,99.90
2023-04-21T10:19:40.197Z,99.90
2023-04-21T10:22:11.074Z,99.90
2023-04-21T10:24:41.212Z,99.90
2023-04-21T10:27:12.649Z,99.90
2023-04-21T10:29:55.417Z,99.90
2023-04-21T10:32:34.400Z,99.90
2023-04-21T10:35:02.806Z,99.90
2023-04-21T10:37:34.237Z,99.90
2023-04-21T10:40:07.407Z,99.90
2023-04-21T10:42:37.913Z,99.90
2023-04-21T10:45:13.354Z,99.90
2023-04-21T10:47:49.390Z,99.90
2023-04-21T10:50:23.360Z,99.90
2023-04-21T10:52:59.610Z,99.90
2023-04-21T10:55:29.991Z,99.90
2023-04-21T10:57:59.347Z,99.90
2023-04-21T11:00:27.516Z,99.90
2023-04-21T11:03:01.204Z,99.90
2023-04-21T11:05:36.482Z,99.90
2023-04-21T11:08:12.868Z,99.90
2023-04-21T11:10:53.482Z,99.90
2023-04-21T11:13:26.594Z,99.90
2023-04-21T11:16:12.321Z,99.90
2023-04-21T11:18:43.041Z,99.90
2023-04-21T11:21:21.486Z,99.90
2023-04-21T11:23:52.511Z,99.90
2023-04-21T11:26:30.468Z,99.90
2023-04-21T11:29:02.028Z,99.90
2023-04-21T11:31:30.990Z,99.90
2023-04-21T11:34:00.665Z,99.90
2023-04-21T11:36:29.439Z,99.90
2023-04-21T11:38:59.506Z,99.90
2023-04-21T11:41:27.696Z,99.90
2023-04-21T11:43:56.517Z,99.90
2023-04-21T11:46:26.872Z,99.90
2023-04-21T11:49:02.345Z,99.90
2023-04-21T11:51:35.276Z,99.90
2023-04-21T11:54:07.340Z,99.90
2023-04-21T11:56:38.083Z,99.90
2023-04-21T11:59:09.969Z,99.90
2023-04-21T12:01:44.654Z,99.90
2023-04-21T12:04:17.305Z,99.90
2023-04-21T12:06:46.437Z,99.90
2023-04-21T12:09:21.037Z,99.90
2023-04-21T12:11:51.043Z,99.90
2023-04-21T12:14:21.539Z,99.90
2023-04-21T12:16:50.635Z,99.90
2023-04-21T12:19:24.620Z,99.90
2023-04-21T12:21:55.603Z,99.90
2023-04-21T12:24:25.876Z,99.90
2023-04-21T12:26:54.090Z,99.90
2023-04-21T12:29:22.314Z,99.90
2023-04-21T12:31:50.808Z,99.90
2023-04-21T12:34:18.925Z,99.90
2023-04-21T12:36:47.517Z,99.90
2023-04-21T12:39:17.632Z,99.90
2023-04-21T12:41:47.557Z,99.90
2023-04-21T12:44:16.008Z,99.90
2023-04-21T12:46:44.297Z,99.90
2023-04-21T12:49:12.465Z,99.60
2023-04-21T12:51:40.831Z,99.90
2023-04-21T12:54:09.151Z,98.20
2023-04-21T12:56:39.643Z,97.40
2023-04-21T12:59:10.787Z,98.40
2023-04-21T13:01:39.938Z,98.50
2023-04-21T13:04:09.257Z,98.10
2023-04-21T13:06:40.218Z,99.90
2023-04-21T13:09:08.637Z,99.90
2023-04-21T13:11:36.728Z,99.90
2023-04-21T13:14:05.425Z,98.40
2023-04-21T13:16:35.207Z,97.80
2023-04-21T13:19:04.196Z,98.20
2023-04-21T13:21:33.069Z,96.70
2023-04-21T13:24:02.227Z,96.10
2023-04-21T13:26:33.605Z,96.70
2023-04-21T13:29:02.649Z,96.40
2023-04-21T13:31:32.324Z,96.50
2023-04-21T13:34:02.845Z,94.10
2023-04-21T13:36:31.408Z,97.20
2023-04-21T13:39:01.551Z,96.30
2023-04-21T13:41:30.073Z,96.90
2023-04-21T13:43:58.256Z,97.00
2023-04-21T13:46:26.498Z,96.80
2023-04-21T13:48:55.273Z,96.10
2023-04-21T13:51:25.052Z,96.50
2023-04-21T13:53:53.189Z,99.70
2023-04-21T13:56:21.932Z,97.60
2023-04-21T13:58:50.538Z,97.10
2023-04-21T14:01:21.254Z,95.70
2023-04-21T14:03:50.892Z,93.00
2023-04-21T14:06:19.347Z,97.80
2023-04-21T14:08:48.866Z,95.40
2023-04-21T14:11:17.428Z,93.40
2023-04-21T14:14:04.498Z,94.00
2023-04-21T14:16:34.677Z,96.90
2023-04-21T14:19:03.570Z,93.10
2023-04-21T14:21:32.751Z,93.20
2023-04-21T14:24:02.668Z,94.40
2023-04-21T14:26:31.250Z,95.40
2023-04-21T14:29:00.597Z,93.80
2023-04-21T14:31:29.062Z,94.60
2023-04-21T14:33:57.710Z,94.60
2023-04-21T14:36:27.367Z,94.60
2023-04-21T14:38:56.112Z,92.70
2023-04-21T14:41:25.633Z,91.10
2023-04-21T14:43:56.794Z,91.50
2023-04-21T14:46:25.160Z,95.70
2023-04-21T14:48:53.317Z,95.90
2023-04-21T14:51:21.987Z,97.00
2023-04-21T14:53:50.489Z,99.80
2023-04-21T14:56:19.414Z,99.20
2023-04-21T14:58:49.302Z,99.90
2023-04-21T15:01:17.556Z,98.40
2023-04-21T15:03:46.302Z,98.00
2023-04-21T15:06:16.187Z,99.20
2023-04-21T15:08:44.493Z,99.90
2023-04-21T15:11:13.089Z,99.70
2023-04-21T15:13:41.332Z,99.40
2023-04-21T15:16:11.185Z,98.30
2023-04-21T15:18:39.432Z,98.20
2023-04-21T15:21:08.114Z,97.80
2023-04-21T15:23:36.611Z,97.50
2023-04-21T15:26:05.664Z,97.40
2023-04-21T15:28:35.589Z,99.00
2023-04-21T15:31:04.040Z,98.50
2023-04-21T15:33:33.809Z,99.60
2023-04-21T15:36:02.061Z,99.40
2023-04-21T15:38:30.530Z,98.80
2023-04-21T15:41:01.220Z,98.20
2023-04-21T15:43:30.364Z,97.80
2023-04-21T15:45:58.833Z,97.90
2023-04-21T15:48:27.150Z,98.10
2023-04-21T15:50:57.945Z,97.10
2023-04-21T15:53:26.205Z,97.20
2023-04-21T15:55:54.561Z,96.60
2023-04-21T15:58:22.842Z,97.50
2023-04-21T16:00:51.122Z,99.40
2023-04-21T16:03:19.634Z,99.20
2023-04-21T16:05:48.122Z,98.70
2023-04-21T16:08:18.247Z,99.90
2023-04-21T16:10:46.727Z,99.40
2023-04-21T16:13:14.913Z,98.60
2023-04-21T16:15:43.501Z,99.50
2023-04-21T16:18:11.892Z,98.90
2023-04-21T16:20:40.419Z,99.90
2023-04-21T16:23:08.752Z,99.90
2023-04-21T16:25:38.769Z,99.90
2023-04-21T16:28:07.609Z,99.90
2023-04-21T16:30:36.293Z,99.90
2023-04-21T16:33:04.630Z,99.90
2023-04-21T16:35:33.009Z,99.90
2023-04-21T16:38:01.380Z,99.90
2023-04-21T16:40:29.805Z,99.90
2023-04-21T16:42:59.328Z,99.90
2023-04-21T16:45:28.789Z,99.90
2023-04-21T16:47:57.519Z,99.90
2023-04-21T16:50:26.048Z,99.90
2023-04-21T16:52:54.414Z,99.90
2023-04-21T16:55:22.670Z,99.90
2023-04-21T16:57:50.824Z,99.90
2023-04-21T17:00:21.205Z,99.90
2023-04-21T17:02:49.626Z,99.90
2023-04-21T17:05:18.137Z,99.90
2023-04-21T17:07:46.351Z,99.90
2023-04-21T17:10:14.569Z,99.90
2023-04-21T17:12:43.225Z,99.90
2023-04-21T17:15:13.294Z,99.90
2023-04-21T17:17:44.957Z,99.90
2023-04-21T17:20:14.889Z,99.90
2023-04-21T17:22:44.040Z,99.90
2023-04-21T17:25:13.674Z,99.90
2023-04-21T17:27:41.926Z,99.90
2023-04-21T17:30:10.955Z,99.90
2023-04-21T17:32:40.636Z,99.90
2023-04-21T17:35:11.085Z,99.90
2023-04-21T17:37:39.400Z,99.90
2023-04-21T17:40:09.790Z,99.90
2023-04-21T17:42:38.217Z,99.90
2023-04-21T17:45:08.583Z,99.90
2023-04-21T17:47:37.104Z,99.90
2023-04-21T17:50:06.191Z,99.90
2023-04-21T17:52:35.797Z,99.90
2023-04-21T17:55:04.264Z,99.90
2023-04-21T17:57:32.672Z,99.90
2023-04-21T18:00:00.874Z,99.90
2023-04-21T18:02:29.224Z,99.90
2023-04-21T18:04:57.849Z,99.90
2023-04-21T18:07:26.200Z,99.90
2023-04-21T18:09:55.968Z,99.90
2023-04-21T18:12:24.652Z,99.90
2023-04-21T18:14:52.829Z,99.90
2023-04-21T18:17:23.303Z,99.90
2023-04-21T18:19:51.754Z,99.90
2023-04-21T18:22:19.957Z,99.90
2023-04-21T18:24:48.227Z,99.90
2023-04-21T18:27:18.424Z,99.90
2023-04-21T18:29:46.988Z,99.90
2023-04-21T18:32:15.223Z,99.90
2023-04-21T18:34:44.118Z,99.90
2023-04-21T18:37:12.334Z,99.90
2023-04-21T18:39:40.799Z,99.90
2023-04-21T18:42:09.098Z,99.90
2023-04-21T18:44:39.363Z,99.90
2023-04-21T18:47:08.027Z,99.90
2023-04-21T18:49:36.420Z,99.90
2023-04-21T18:52:04.538Z,99.90
2023-04-21T18:54:32.777Z,99.90
2023-04-21T18:57:01.445Z,99.90
2023-04-21T18:59:29.703Z,99.90
2023-04-21T19:02:00.331Z,99.90
2023-04-21T19:04:28.953Z,99.90
2023-04-21T19:06:57.224Z,99.90
2023-04-21T19:09:27.224Z,99.90
2023-04-21T19:11:56.057Z,99.90
2023-04-21T19:14:25.452Z,99.90
2023-04-21T19:16:54.047Z,99.90
2023-04-21T19:19:24.317Z,99.90
2023-04-21T19:21:52.495Z,99.90
2023-04-21T19:24:22.017Z,99.90
2023-04-21T19:26:50.300Z,99.90
2023-04-21T19:29:18.620Z,99.90
2023-04-21T19:31:46.863Z,99.90
2023-04-21T19:34:15.195Z,99.90
2023-04-21T19:36:45.352Z,99.90
2023-04-21T19:39:14.107Z,99.90
2023-04-21T19:41:42.688Z,99.90
2023-04-21T19:44:10.875Z,99.90
2023-04-21T19:46:42.513Z,99.90
2023-04-21T19:49:13.183Z,99.90
2023-04-21T19:51:41.558Z,99.90
2023-04-21T19:54:12.520Z,99.90
2023-04-21T19:56:41.108Z,99.90
2023-04-21T19:59:09.317Z,99.90
2023-04-21T20:01:37.805Z,99.90
2023-04-21T20:04:07.246Z,99.90
2023-04-21T20:06:36.023Z,99.90
2023-04-21T20:09:05.811Z,99.90
2023-04-21T20:11:35.501Z,99.90
2023-04-21T20:14:03.927Z,99.90
2023-04-21T20:16:32.927Z,99.90
2023-04-21T20:19:01.570Z,99.90
2023-04-21T20:21:29.966Z,99.90
2023-04-21T20:23:58.405Z,99.90
2023-04-21T20:26:26.772Z,99.90
2023-04-21T20:28:56.254Z,99.90
2023-04-21T20:31:25.550Z,99.90
2023-04-21T20:33:54.279Z,99.90
2023-04-21T20:36:22.518Z,99.90
2023-04-21T20:38:50.712Z,99.90
2023-04-21T20:41:19.617Z,99.90
2023-04-21T20:43:47.791Z,99.90
2023-04-21T20:46:17.861Z,99.90
2023-04-21T20:48:46.813Z,99.90
2023-04-21T20:51:14.954Z,99.90
2023-04-21T20:53:43.138Z,99.90
2023-04-21T20:56:11.479Z,99.90
2023-04-21T20:58:39.617Z,99.90
2023-04-21T21:01:08.818Z,99.90
2023-04-21T21:03:39.045Z,99.90
2023-04-21T21:06:07.639Z,99.90
2023-04-21T21:08:35.888Z,99.90
2023-04-21T21:11:05.238Z,99.90
2023-04-21T21:13:33.640Z,99.90
2023-04-21T21:16:01.881Z,99.90
2023-04-21T21:18:34.831Z,99.90
2023-04-21T21:21:06.660Z,99.90
2023-04-21T21:23:34.932Z,99.90
2023-04-21T21:26:03.302Z,99.90
2023-04-21T21:28:31.812Z,99.90
2023-04-21T21:30:59.970Z,99.90
2023-04-21T21:33:28.406Z,99.90
2023-04-21T21:35:56.775Z,99.90
2023-04-21T21:38:26.371Z,99.90
2023-04-21T21:40:54.703Z,99.90
2023-04-21T21:43:22.928Z,99.90
2023-04-21T21:45:51.181Z,99.90
2023-04-21T21:48:19.792Z,99.90
2023-04-21T21:50:48.272Z,99.90
2023-04-21T21:53:16.441Z,99.90
2023-04-21T21:55:46.193Z,99.90
2023-04-21T21:58:14.811Z,99.90
2023-04-21T22:00:42.958Z,99.90
2023-04-21T22:03:11.801Z,99.90
2023-04-21T22:05:40.136Z,99.90
2023-04-21T22:08:08.317Z,99.90
2023-04-21T22:10:36.755Z,99.90
2023-04-21T22:13:06.389Z,99.90
2023-04-21T22:15:37.056Z,99.90
2023-04-21T22:18:07.383Z,99.90
2023-04-21T22:20:35.686Z,99.90
2023-04-21T22:23:04.464Z,99.90
2023-04-21T22:25:32.901Z,99.90
2023-04-21T22:28:01.081Z,99.90
2023-04-21T22:30:31.190Z,99.90
2023-04-21T22:32:59.454Z,99.90
2023-04-21T22:35:27.758Z,99.90
2023-04-21T22:37:56.000Z,99.90
2023-04-21T22:40:24.514Z,99.90
2023-04-21T22:42:52.715Z,99.90
2023-04-21T22:45:21.003Z,99.90
2023-04-21T22:47:50.871Z,99.90
2023-04-21T22:50:19.856Z,99.90
2023-04-21T22:52:48.036Z,99.90
2023-04-21T22:55:16.714Z,99.90
2023-04-21T22:57:44.945Z,99.90
2023-04-21T23:00:13.818Z,99.90
2023-04-21T23:02:42.643Z,99.90
2023-04-21T23:05:12.449Z,99.90
2023-04-21T23:07:40.595Z,99.90
2023-04-21T23:10:09.360Z,99.90
2023-04-21T23:12:37.509Z,99.90
2023-04-21T23:15:06.666Z,99.90
2023-04-21T23:17:35.171Z,99.90
2023-04-21T23:20:05.469Z,99.90
2023-04-21T23:22:35.284Z,99.90
2023-04-21T23:25:03.794Z,99.90
2023-04-21T23:27:32.009Z,99.90
2023-04-21T23:30:00.580Z,99.90
2023-04-21T23:32:29.600Z,99.90
2023-04-21T23:34:57.845Z,99.90
2023-04-21T23:37:26.251Z,99.90
2023-04-21T23:39:56.099Z,99.90
2023-04-21T23:42:24.261Z,99.90
2023-04-21T23:44:52.405Z,99.90
2023-04-21T23:47:20.790Z,99.90
2023-04-21T23:49:48.966Z,99.90
2023-04-21T23:52:17.257Z,99.90
2023-04-21T23:54:45.899Z,99.90
2023-04-21T23:57:15.578Z,99.90
2023-04-21T23:59:43.719Z,99.90
